createdAt,value
2018-03-31T00:00:18.536Z,6.5
2018-03-31T00:02:19.271Z,6.8
2018-03-31T00:04:19.034Z,6.6
2018-03-31T00:06:18.549Z,6.9
2018-03-31T00:08:19.307Z,5.4
2018-03-31T00:10:18.560Z,5.8
2018-03-31T00:12:19.348Z,6.2
2018-03-31T00:14:19.148Z,7
2018-03-31T00:16:18.828Z,5.9
2018-03-31T00:18:18.691Z,5.7
2018-03-31T00:20:19.468Z,5.9
2018-03-31T00:22:19.234Z,5.1
2018-03-31T00:24:19.028Z,6
2018-03-31T00:26:18.598Z,5.1
2018-03-31T00:28:19.376Z,6.5
2018-03-31T00:30:19.174Z,5.7
2018-03-31T00:32:18.964Z,6.5
2018-03-31T00:34:18.721Z,6.2
2018-03-31T00:36:19.443Z,5.8
2018-03-31T00:38:19.215Z,6.4
2018-03-31T00:40:19.449Z,6.3
2018-03-31T00:42:19.190Z,6.4
2018-03-31T00:44:19.019Z,6.1
2018-03-31T00:46:19.234Z,5.7
2018-03-31T00:48:19.015Z,5.4
2018-03-31T00:50:18.767Z,6.3
2018-03-31T00:52:18.545Z,5.6
2018-03-31T00:54:19.304Z,7.2
2018-03-31T00:56:18.675Z,6.2
2018-03-31T00:58:19.439Z,6.2
2018-03-31T01:00:19.236Z,6.5
2018-03-31T01:02:19.420Z,5.8
2018-03-31T01:04:19.203Z,6.2
2018-03-31T01:06:18.519Z,6.3
2018-03-31T01:08:19.306Z,5.8
2018-03-31T01:10:18.565Z,6.4
2018-03-31T01:12:19.371Z,7.2
2018-03-31T01:14:19.135Z,6.7
2018-03-31T01:16:18.876Z,7
2018-03-31T01:18:18.712Z,6.6
2018-03-31T01:20:18.503Z,5.4
2018-03-31T01:22:19.282Z,6.9
2018-03-31T01:24:19.050Z,6.4
2018-03-31T01:26:19.212Z,5.2
2018-03-31T01:28:19.026Z,6.9
2018-03-31T01:30:18.795Z,6.4
2018-03-31T01:32:18.577Z,6.8
2018-03-31T01:34:19.350Z,6.1
2018-03-31T01:36:18.923Z,5.8
2018-03-31T01:38:18.700Z,7
2018-03-31T01:40:18.957Z,5.1
2018-03-31T01:42:18.740Z,6.6
2018-03-31T01:44:18.484Z,7
2018-03-31T01:46:19.045Z,5.7
2018-03-31T01:48:18.807Z,5.9
2018-03-31T01:50:18.594Z,5.9
2018-03-31T01:52:19.519Z,7.3
2018-03-31T01:54:19.367Z,6.7
2018-03-31T01:56:19.095Z,7
2018-03-31T01:58:18.936Z,6.1
2018-03-31T02:00:18.807Z,6.1
2018-03-31T02:02:18.661Z,6.1
2018-03-31T02:04:18.548Z,6.5
2018-03-31T02:06:19.430Z,5.7
2018-03-31T02:08:19.280Z,6.6
2018-03-31T02:10:18.668Z,6.5
2018-03-31T02:12:19.352Z,6.8
2018-03-31T02:14:19.192Z,6.2
2018-03-31T02:16:19.444Z,6.1
2018-03-31T02:18:19.367Z,5.2
2018-03-31T02:20:19.283Z,5.5
2018-03-31T02:22:19.171Z,6
2018-03-31T02:24:19.058Z,6.1
2018-03-31T02:26:18.786Z,6
2018-03-31T02:28:18.625Z,6.1
2018-03-31T02:30:19.499Z,7.1
2018-03-31T02:32:19.386Z,6.1
2018-03-31T02:34:19.228Z,5.9
2018-03-31T02:36:19.089Z,6.4
2018-03-31T02:38:18.969Z,5.7
2018-03-31T02:40:19.345Z,5.9
2018-03-31T02:42:19.226Z,6.5
2018-03-31T02:44:19.077Z,5.8
2018-03-31T02:46:18.922Z,6.6
2018-03-31T02:48:18.783Z,6.4
2018-03-31T02:50:18.663Z,6.3
2018-03-31T02:52:19.508Z,6.1
2018-03-31T02:54:19.400Z,6.3
2018-03-31T02:56:18.718Z,6.6
2018-03-31T02:58:18.558Z,6.8
2018-03-31T03:00:19.437Z,6.5
2018-03-31T03:02:19.317Z,6.7
2018-03-31T03:04:19.178Z,6.7
2018-03-31T03:06:19.139Z,6.8
2018-03-31T03:08:19.013Z,6.8
2018-03-31T03:10:19.296Z,6
2018-03-31T03:12:19.177Z,6.9
2018-03-31T03:14:19.060Z,6.1
2018-03-31T03:16:18.840Z,7
2018-03-31T03:18:18.761Z,6.3
2018-03-31T03:20:18.653Z,7.1
2018-03-31T03:22:19.565Z,7.6
2018-03-31T03:24:19.440Z,6.5
2018-03-31T03:26:19.184Z,6.4
2018-03-31T03:28:19.033Z,5.9
2018-03-31T03:30:18.872Z,7.3
2018-03-31T03:32:18.714Z,6.4
2018-03-31T03:34:18.563Z,6.2
2018-03-31T03:36:19.362Z,6.6
2018-03-31T03:38:19.216Z,6.3
2018-03-31T03:40:18.550Z,6
2018-03-31T03:42:18.772Z,6.3
2018-03-31T03:44:18.621Z,5.6
2018-03-31T03:46:19.368Z,6.7
2018-03-31T03:48:19.238Z,7
2018-03-31T03:50:19.119Z,6.2
2018-03-31T03:52:18.996Z,5.9
2018-03-31T03:54:18.851Z,6.3
2018-03-31T03:56:19.198Z,6.8
2018-03-31T03:58:19.097Z,6.2
2018-03-31T04:00:18.979Z,5.5
2018-03-31T04:02:18.848Z,6.4
2018-03-31T04:04:18.717Z,6.1
2018-03-31T04:06:19.009Z,5.4
2018-03-31T04:08:18.869Z,6.4
2018-03-31T04:10:19.231Z,6.1
2018-03-31T04:12:19.120Z,6.9
2018-03-31T04:14:18.985Z,6.8
2018-03-31T04:16:18.750Z,5.7
2018-03-31T04:18:18.679Z,6
2018-03-31T04:20:18.534Z,6
2018-03-31T04:22:19.430Z,6.5
2018-03-31T04:24:19.319Z,6.2
2018-03-31T04:26:19.092Z,6.2
2018-03-31T04:28:18.962Z,5.5
2018-03-31T04:30:18.871Z,5.7
2018-03-31T04:32:18.705Z,6.3
2018-03-31T04:34:18.555Z,6.5
2018-03-31T04:36:19.300Z,5.7
2018-03-31T04:38:19.159Z,6.4
2018-03-31T04:40:19.525Z,6.3
2018-03-31T04:42:19.375Z,5.8
2018-03-31T04:44:19.235Z,5.6
2018-03-31T04:46:19.003Z,6.6
2018-03-31T04:48:18.846Z,5.5
2018-03-31T04:50:18.736Z,7
2018-03-31T04:52:18.600Z,6
2018-03-31T04:54:19.459Z,6.3
2018-03-31T04:56:18.726Z,6.5
2018-03-31T04:58:18.590Z,6
2018-03-31T05:00:19.459Z,6
2018-03-31T05:02:19.319Z,6.8
2018-03-31T05:04:19.196Z,5.9
2018-03-31T05:06:18.576Z,5.8
2018-03-31T05:08:19.469Z,6
2018-03-31T05:10:18.788Z,6.6
2018-03-31T05:12:18.626Z,6.4
2018-03-31T05:14:19.478Z,5.9
2018-03-31T05:16:18.772Z,6.4
2018-03-31T05:18:18.708Z,7.3
2018-03-31T05:20:18.613Z,6
2018-03-31T05:22:19.473Z,5.8
2018-03-31T05:24:19.355Z,6.2
2018-03-31T05:26:19.179Z,6.1
2018-03-31T05:28:19.066Z,6.3
2018-03-31T05:30:18.936Z,7.2
2018-03-31T05:32:18.808Z,6.9
2018-03-31T05:34:18.659Z,6.5
2018-03-31T05:36:18.660Z,6.3
2018-03-31T05:38:18.530Z,6.6
2018-03-31T05:40:18.885Z,6.7
2018-03-31T05:42:18.730Z,6.7
2018-03-31T05:44:18.581Z,6.3
2018-03-31T05:46:18.850Z,7
2018-03-31T05:48:18.700Z,5.4
2018-03-31T05:50:18.545Z,6.8
2018-03-31T05:52:19.396Z,7
2018-03-31T05:54:19.252Z,6.4
2018-03-31T05:56:19.088Z,7.8
2018-03-31T05:58:18.932Z,6.3
2018-03-31T06:00:18.800Z,5.6
2018-03-31T06:02:18.637Z,7.7
2018-03-31T06:04:19.515Z,7.2
2018-03-31T06:06:18.964Z,6.5
2018-03-31T06:08:18.839Z,7.3
2018-03-31T06:10:19.139Z,6.9
2018-03-31T06:12:18.980Z,7.7
2018-03-31T06:14:18.849Z,6.5
2018-03-31T06:16:18.672Z,6.6
2018-03-31T06:18:18.600Z,6.8
2018-03-31T06:20:19.471Z,7
2018-03-31T06:22:19.326Z,6.8
2018-03-31T06:24:19.201Z,7.5
2018-03-31T06:26:18.562Z,7.4
2018-03-31T06:28:19.403Z,6.9
2018-03-31T06:30:19.264Z,6.8
2018-03-31T06:32:19.149Z,7.3
2018-03-31T06:34:19.062Z,6.5
2018-03-31T06:36:18.822Z,7.1
2018-03-31T06:38:18.681Z,6.4
2018-03-31T06:40:19.135Z,7.3
2018-03-31T06:42:19.016Z,7.7
2018-03-31T06:44:18.858Z,6.1
2018-03-31T06:46:18.695Z,7.3
2018-03-31T06:48:18.557Z,6.9
2018-03-31T06:50:19.431Z,5.8
2018-03-31T06:52:19.317Z,6.2
2018-03-31T06:54:19.185Z,7.5
2018-03-31T06:56:19.200Z,7.5
2018-03-31T06:58:19.143Z,6.7
2018-03-31T07:00:19.056Z,6.7
2018-03-31T07:02:18.923Z,7.3
2018-03-31T07:04:18.778Z,7
2018-03-31T07:06:18.627Z,7.3
2018-03-31T07:08:19.511Z,7.7
2018-03-31T07:10:18.852Z,7.7
2018-03-31T07:12:18.722Z,6
2018-03-31T07:14:18.579Z,6.9
2018-03-31T07:16:18.982Z,6.2
2018-03-31T07:18:18.939Z,7.8
2018-03-31T07:20:18.880Z,6.3
2018-03-31T07:22:18.785Z,6.1
2018-03-31T07:24:18.707Z,8.2
2018-03-31T07:26:19.517Z,7.8
2018-03-31T07:28:19.384Z,7.2
2018-03-31T07:30:19.294Z,7.8
2018-03-31T07:32:19.162Z,5.8
2018-03-31T07:34:19.013Z,7.2
2018-03-31T07:36:18.894Z,7.4
2018-03-31T07:38:18.760Z,6.4
2018-03-31T07:40:19.102Z,7.9
2018-03-31T07:42:18.960Z,7.4
2018-03-31T07:44:18.818Z,6.7
2018-03-31T07:46:19.125Z,6.9
2018-03-31T07:48:18.977Z,6.9
2018-03-31T07:50:18.864Z,7.7
2018-03-31T07:52:18.745Z,7.2
2018-03-31T07:54:18.599Z,6.7
2018-03-31T07:56:19.419Z,7.4
2018-03-31T07:58:19.278Z,6.8
2018-03-31T08:00:19.210Z,7.2
2018-03-31T08:02:19.090Z,6.4
2018-03-31T08:04:18.944Z,7.4
2018-03-31T08:06:19.365Z,8.6
2018-03-31T08:08:19.239Z,6.9
2018-03-31T08:10:18.589Z,8.4
2018-03-31T08:12:19.470Z,7.8
2018-03-31T08:14:19.313Z,7.7
2018-03-31T08:16:19.054Z,7.5
2018-03-31T08:18:19.036Z,9
2018-03-31T08:20:18.951Z,7.6
2018-03-31T08:22:18.843Z,6.6
2018-03-31T08:24:18.680Z,7.9
2018-03-31T08:26:19.488Z,7
2018-03-31T08:28:19.341Z,7.2
2018-03-31T08:30:19.253Z,7.6
2018-03-31T08:32:19.191Z,7.5
2018-03-31T08:34:19.067Z,9
2018-03-31T08:36:18.791Z,8.1
2018-03-31T08:38:18.670Z,7.8
2018-03-31T08:40:18.999Z,7.7
2018-03-31T08:42:18.879Z,8.1
2018-03-31T08:44:18.767Z,8
2018-03-31T08:46:18.585Z,7.8
2018-03-31T08:48:19.462Z,8.4
2018-03-31T08:50:19.354Z,7.6
2018-03-31T08:52:19.217Z,7.8
2018-03-31T08:54:19.088Z,8.3
2018-03-31T08:56:18.555Z,8.2
2018-03-31T08:58:19.431Z,7.5
2018-03-31T09:00:19.295Z,7.8
2018-03-31T09:02:19.165Z,8.1
2018-03-31T09:04:19.033Z,7.9
2018-03-31T09:06:19.385Z,8.6
2018-03-31T09:08:19.265Z,8.4
2018-03-31T09:10:18.616Z,8.2
2018-03-31T09:12:19.497Z,8.6
2018-03-31T09:14:19.391Z,8.1
2018-03-31T09:16:18.666Z,7.5
2018-03-31T09:18:18.606Z,9.7
2018-03-31T09:20:19.462Z,8
2018-03-31T09:22:19.323Z,8.8
2018-03-31T09:24:19.214Z,9
2018-03-31T09:26:18.839Z,8.4
2018-03-31T09:28:18.707Z,7.9
2018-03-31T09:30:18.580Z,9
2018-03-31T09:32:19.457Z,8.9
2018-03-31T09:34:19.330Z,8.6
2018-03-31T09:36:18.682Z,8.9
2018-03-31T09:38:18.536Z,7.6
2018-03-31T09:40:18.856Z,8.3
2018-03-31T09:42:18.736Z,8.4
2018-03-31T09:44:18.609Z,9
2018-03-31T09:46:19.389Z,8.8
2018-03-31T09:48:19.245Z,7.3
2018-03-31T09:50:19.145Z,9.1
2018-03-31T09:52:19.067Z,8.5
2018-03-31T09:54:18.959Z,8.3
2018-03-31T09:56:18.691Z,8.7
2018-03-31T09:58:18.566Z,8
2018-03-31T10:00:19.484Z,8.5
2018-03-31T10:02:19.406Z,9.2
2018-03-31T10:04:19.266Z,8.2
2018-03-31T10:06:19.201Z,8.9
2018-03-31T10:08:19.086Z,8.3
2018-03-31T10:10:19.567Z,9.1
2018-03-31T10:12:19.410Z,8.9
2018-03-31T10:14:19.262Z,8.6
2018-03-31T10:16:19.052Z,7.1
2018-03-31T10:18:19.004Z,9.2
2018-03-31T10:20:18.859Z,8.6
2018-03-31T10:22:18.725Z,9.6
2018-03-31T10:24:18.606Z,8.5
2018-03-31T10:26:18.552Z,9.9
2018-03-31T10:28:19.414Z,8.6
2018-03-31T10:30:19.339Z,9.4
2018-03-31T10:32:19.229Z,8.9
2018-03-31T10:34:19.119Z,9.5
2018-03-31T10:36:18.919Z,10.5
2018-03-31T10:38:18.766Z,9.8
2018-03-31T10:40:19.107Z,9.3
2018-03-31T10:42:18.971Z,8
2018-03-31T10:44:18.844Z,9.6
2018-03-31T10:46:19.251Z,9.6
2018-03-31T10:48:19.127Z,9.4
2018-03-31T10:50:19.024Z,8.6
2018-03-31T10:52:18.893Z,8.2
2018-03-31T10:54:18.772Z,10.3
2018-03-31T10:56:19.007Z,11.6
2018-03-31T10:58:18.870Z,10.8
2018-03-31T11:00:18.772Z,9.8
2018-03-31T11:02:19.509Z,9.4
2018-03-31T11:04:19.399Z,11.5
2018-03-31T11:06:19.160Z,9.4
2018-03-31T11:08:19.059Z,10.7
2018-03-31T11:10:19.427Z,10.2
2018-03-31T11:12:19.329Z,9
2018-03-31T11:14:19.209Z,9.7
2018-03-31T11:16:18.979Z,10.2
2018-03-31T11:18:18.938Z,10.2
2018-03-31T11:20:18.791Z,9.8
2018-03-31T11:22:18.659Z,9.7
2018-03-31T11:24:18.542Z,10.3
2018-03-31T11:26:18.827Z,9.5
2018-03-31T11:28:18.697Z,9.9
2018-03-31T11:30:18.632Z,10
2018-03-31T11:32:19.576Z,9.3
2018-03-31T11:34:18.548Z,10.5
2018-03-31T11:36:18.935Z,10.1
2018-03-31T11:38:18.800Z,9.4
2018-03-31T11:40:19.141Z,11.1
2018-03-31T11:42:19.049Z,11.2
2018-03-31T11:44:18.939Z,11.3
2018-03-31T11:46:19.358Z,10.5
2018-03-31T11:48:19.215Z,9.8
2018-03-31T11:50:19.143Z,9.8
2018-03-31T11:52:19.060Z,9.6
2018-03-31T11:54:18.972Z,10.5
2018-03-31T11:56:19.331Z,11.3
2018-03-31T11:58:19.216Z,9.2
2018-03-31T12:00:19.100Z,9.7
2018-03-31T12:02:18.973Z,9
2018-03-31T12:04:18.840Z,10.2
2018-03-31T12:06:18.584Z,9.9
2018-03-31T12:08:19.436Z,9.8
2018-03-31T12:10:18.769Z,10.4
2018-03-31T12:12:18.626Z,10.3
2018-03-31T12:14:19.501Z,9
2018-03-31T12:16:19.272Z,10.1
2018-03-31T12:18:19.294Z,9.9
2018-03-31T12:20:19.197Z,10.7
2018-03-31T12:22:19.099Z,8.9
2018-03-31T12:24:18.956Z,10.6
2018-03-31T12:26:18.746Z,10.1
2018-03-31T12:28:18.643Z,9.9
2018-03-31T12:30:18.551Z,9.6
2018-03-31T12:32:19.432Z,10.9
2018-03-31T12:34:19.344Z,10.5
2018-03-31T12:36:18.860Z,10.9
2018-03-31T12:38:18.744Z,11.5
2018-03-31T12:40:19.104Z,11.6
2018-03-31T12:42:18.998Z,9.5
2018-03-31T12:44:18.872Z,11.6
2018-03-31T12:46:19.197Z,10
2018-03-31T12:48:19.059Z,11.1
2018-03-31T12:50:18.949Z,10.8
2018-03-31T12:52:18.868Z,11.6
2018-03-31T12:54:18.832Z,11.8
2018-03-31T12:56:18.650Z,10
2018-03-31T12:58:19.529Z,11
2018-03-31T13:00:19.427Z,12.2
2018-03-31T13:02:19.302Z,10.5
2018-03-31T13:04:19.186Z,11.3
2018-03-31T13:06:18.619Z,11.2
2018-03-31T13:08:19.530Z,10.7
2018-03-31T13:10:18.894Z,11.7
2018-03-31T13:12:18.783Z,11.9
2018-03-31T13:14:18.686Z,11.6
2018-03-31T13:16:19.184Z,10.1
2018-03-31T13:18:19.175Z,12.5
2018-03-31T13:20:19.101Z,10
2018-03-31T13:22:18.986Z,10.7
2018-03-31T13:24:18.838Z,10.7
2018-03-31T13:26:18.596Z,11.4
2018-03-31T13:28:19.493Z,11.4
2018-03-31T13:30:19.373Z,10.3
2018-03-31T13:32:19.242Z,10.4
2018-03-31T13:34:19.114Z,10.9
2018-03-31T13:36:18.542Z,9.6
2018-03-31T13:38:19.398Z,11.3
2018-03-31T13:40:18.775Z,10.9
2018-03-31T13:42:18.641Z,12.4
2018-03-31T13:44:19.504Z,10.3
2018-03-31T13:46:18.960Z,9.1
2018-03-31T13:48:18.822Z,10.8
2018-03-31T13:50:18.680Z,10.8
2018-03-31T13:52:18.548Z,9.5
2018-03-31T13:54:19.432Z,11
2018-03-31T13:56:19.015Z,11.1
2018-03-31T13:58:18.892Z,11.6
2018-03-31T14:00:18.777Z,11.3
2018-03-31T14:02:18.636Z,11.2
2018-03-31T14:04:19.506Z,11.4
2018-03-31T14:06:19.228Z,11.9
2018-03-31T14:08:19.110Z,12.4
2018-03-31T14:10:19.478Z,11.5
2018-03-31T14:12:19.352Z,12
2018-03-31T14:14:19.215Z,12.3
2018-03-31T14:16:18.726Z,12.1
2018-03-31T14:18:18.664Z,12.5
2018-03-31T14:20:18.526Z,12.3
2018-03-31T14:22:19.415Z,12.2
2018-03-31T14:24:19.312Z,11.5
2018-03-31T14:26:19.069Z,11.7
2018-03-31T14:28:18.958Z,12.1
2018-03-31T14:30:18.870Z,12.8
2018-03-31T14:32:18.735Z,12.8
2018-03-31T14:34:18.631Z,11.8
2018-03-31T14:36:18.946Z,13.4
2018-03-31T14:38:18.821Z,11.8
2018-03-31T14:40:19.169Z,13.8
2018-03-31T14:42:19.049Z,12.5
2018-03-31T14:44:18.943Z,12.7
2018-03-31T14:46:18.738Z,13.9
2018-03-31T14:48:18.606Z,12.2
2018-03-31T14:50:19.472Z,13.8
2018-03-31T14:52:19.344Z,13.3
2018-03-31T14:54:19.208Z,13.9
2018-03-31T14:56:18.647Z,12.6
2018-03-31T14:58:19.509Z,13.9
2018-03-31T15:00:19.387Z,11.8
2018-03-31T15:02:19.297Z,11.9
2018-03-31T15:04:19.167Z,12.4
2018-03-31T15:06:19.491Z,11
2018-03-31T15:08:19.355Z,11.8
2018-03-31T15:10:18.719Z,13.4
2018-03-31T15:12:18.573Z,13.1
2018-03-31T15:14:19.448Z,11.8
2018-03-31T15:16:19.338Z,15.3
2018-03-31T15:18:19.356Z,13.7
2018-03-31T15:20:19.247Z,11.6
2018-03-31T15:22:19.125Z,11.7
2018-03-31T15:24:19.000Z,11.8
2018-03-31T15:26:19.091Z,12.5
2018-03-31T15:28:18.957Z,11.6
2018-03-31T15:30:18.836Z,11.8
2018-03-31T15:32:18.723Z,11.1
2018-03-31T15:34:18.598Z,12.9
2018-03-31T15:36:18.900Z,10.9
2018-03-31T15:38:18.762Z,11.8
2018-03-31T15:40:19.105Z,10.8
2018-03-31T15:42:19.005Z,11.8
2018-03-31T15:44:18.885Z,15.1
2018-03-31T15:46:19.015Z,14.6
2018-03-31T15:48:18.887Z,15
2018-03-31T15:50:18.858Z,16.4
2018-03-31T15:52:18.962Z,22
2018-03-31T15:54:18.845Z,21.5
2018-03-31T15:56:18.727Z,19.9
2018-03-31T15:58:18.623Z,17.5
2018-03-31T16:00:19.521Z,13.9
2018-03-31T16:02:19.414Z,14.8
2018-03-31T16:04:19.282Z,14.5
2018-03-31T16:06:19.289Z,14.8
2018-03-31T16:08:19.167Z,14
2018-03-31T16:10:19.513Z,15.9
2018-03-31T16:12:19.390Z,13.3
2018-03-31T16:14:19.283Z,14.9
2018-03-31T16:16:19.358Z,13.9
2018-03-31T16:18:19.305Z,14.7
2018-03-31T16:20:19.225Z,17.5
2018-03-31T16:22:19.102Z,17.5
2018-03-31T16:24:19.056Z,16.7
2018-03-31T16:26:18.858Z,18
2018-03-31T16:28:18.741Z,18.1
2018-03-31T16:30:18.631Z,17.1
2018-03-31T16:32:19.530Z,18
2018-03-31T16:34:19.425Z,17.4
2018-03-31T16:36:18.908Z,22.5
2018-03-31T16:38:18.769Z,16.3
2018-03-31T16:40:19.172Z,15.4
2018-03-31T16:42:19.054Z,13.8
2018-03-31T16:44:18.937Z,14.1
2018-03-31T16:46:19.468Z,13.9
2018-03-31T16:48:19.328Z,13.3
2018-03-31T16:50:19.203Z,14.6
2018-03-31T16:52:19.512Z,12
2018-03-31T16:54:19.470Z,11.2
2018-03-31T16:56:18.759Z,13.2
2018-03-31T16:58:18.623Z,13.1
2018-03-31T17:00:19.564Z,12.6
2018-03-31T17:02:19.449Z,12.4
2018-03-31T17:04:19.317Z,13.3
2018-03-31T17:06:19.156Z,12.2
2018-03-31T17:08:19.054Z,14
2018-03-31T17:10:19.420Z,13
2018-03-31T17:12:19.160Z,13.1
2018-03-31T17:14:19.044Z,13.8
2018-03-31T17:16:18.942Z,13.4
2018-03-31T17:18:18.874Z,14.2
2018-03-31T17:20:18.750Z,11.6
2018-03-31T17:22:18.669Z,12.4
2018-03-31T17:24:18.522Z,12.9
2018-03-31T17:26:19.333Z,12.9
2018-03-31T17:28:19.209Z,13.1
2018-03-31T17:30:19.087Z,12.9
2018-03-31T17:32:19.028Z,13.4
2018-03-31T17:34:18.870Z,13.2
2018-03-31T17:36:19.149Z,13.4
2018-03-31T17:38:19.045Z,13.7
2018-03-31T17:40:19.384Z,15
2018-03-31T17:42:19.247Z,12.8
2018-03-31T17:44:19.103Z,12.2
2018-03-31T17:46:19.422Z,12.7
2018-03-31T17:48:19.286Z,12.1
2018-03-31T17:50:19.168Z,12.4
2018-03-31T17:52:19.036Z,12.2
2018-03-31T17:54:18.927Z,12.7
2018-03-31T17:56:18.967Z,11.1
2018-03-31T17:58:18.874Z,12.8
2018-03-31T18:00:18.738Z,11.7
2018-03-31T18:02:18.609Z,12.2
2018-03-31T18:04:19.486Z,13.2
2018-03-31T18:06:19.245Z,11.4
2018-03-31T18:08:19.104Z,11.9
2018-03-31T18:10:19.528Z,13
2018-03-31T18:12:18.662Z,13.4
2018-03-31T18:14:19.511Z,10.9
2018-03-31T18:16:18.812Z,12.4
2018-03-31T18:18:18.783Z,12.5
2018-03-31T18:20:18.810Z,13.1
2018-03-31T18:22:18.660Z,12.8
2018-03-31T18:24:19.513Z,13.5
2018-03-31T18:26:19.294Z,10.9
2018-03-31T18:28:19.180Z,11.9
2018-03-31T18:30:19.091Z,12.6
2018-03-31T18:32:18.972Z,11.8
2018-03-31T18:34:18.844Z,11
2018-03-31T18:36:19.123Z,12
2018-03-31T18:38:18.988Z,11.5
2018-03-31T18:40:19.384Z,10.7
2018-03-31T18:42:19.233Z,10.6
2018-03-31T18:44:19.079Z,10.7
2018-03-31T18:46:18.906Z,11.3
2018-03-31T18:48:18.768Z,10.9
2018-03-31T18:50:18.664Z,10.3
2018-03-31T18:52:18.570Z,10.9
2018-03-31T18:54:19.428Z,11.6
2018-03-31T18:56:18.775Z,10.2
2018-03-31T18:58:18.650Z,11
2018-03-31T19:00:19.535Z,9.2
2018-03-31T19:02:19.409Z,9.7
2018-03-31T19:04:19.255Z,11.2
2018-03-31T19:06:18.555Z,11.8
2018-03-31T19:08:19.417Z,12
2018-03-31T19:10:18.851Z,12.2
2018-03-31T19:12:18.712Z,10.8
2018-03-31T19:14:18.583Z,11.7
2018-03-31T19:16:19.160Z,11.8
2018-03-31T19:18:19.351Z,10.3
2018-03-31T19:20:19.216Z,10.5
2018-03-31T19:22:19.121Z,11.3
2018-03-31T19:24:19.042Z,9.7
2018-03-31T19:26:19.388Z,11.9
2018-03-31T19:28:19.244Z,11.7
2018-03-31T19:30:19.110Z,11.2
2018-03-31T19:32:18.969Z,11.4
2018-03-31T19:34:18.986Z,10.6
2018-03-31T19:36:18.640Z,10.1
2018-03-31T19:38:19.486Z,10.9
2018-03-31T19:40:18.825Z,11.3
2018-03-31T19:42:18.937Z,11.5
2018-03-31T19:44:18.808Z,10
2018-03-31T19:46:18.751Z,10.2
2018-03-31T19:48:18.623Z,10.5
2018-03-31T19:50:19.507Z,9
2018-03-31T19:52:19.359Z,9.4
2018-03-31T19:54:19.209Z,9.6
2018-03-31T19:56:18.586Z,8.8
2018-03-31T19:58:19.453Z,10.2
2018-03-31T20:00:19.371Z,10.1
2018-03-31T20:02:19.259Z,8.8
2018-03-31T20:04:19.104Z,8.3
2018-03-31T20:06:19.052Z,9.9
2018-03-31T20:08:18.915Z,8.4
2018-03-31T20:10:19.315Z,9.7
2018-03-31T20:12:19.250Z,10.5
2018-03-31T20:14:19.130Z,8.7
2018-03-31T20:16:19.709Z,9.8
2018-03-31T20:18:18.686Z,11
2018-03-31T20:20:18.549Z,10
2018-03-31T20:22:19.403Z,10.6
2018-03-31T20:24:19.338Z,10.2
2018-03-31T20:26:19.161Z,10.2
2018-03-31T20:28:19.002Z,10.6
2018-03-31T20:30:19.042Z,10.6
2018-03-31T20:32:18.919Z,10.2
2018-03-31T20:34:18.779Z,11
2018-03-31T20:36:19.117Z,11.1
2018-03-31T20:38:18.969Z,9.3
2018-03-31T20:40:19.304Z,11.7
2018-03-31T20:42:19.464Z,11.1
2018-03-31T20:44:19.344Z,10.1
2018-03-31T20:46:20.141Z,11.2
2018-03-31T20:48:18.983Z,11.4
2018-03-31T20:50:18.855Z,11
2018-03-31T20:52:18.733Z,9.6
2018-03-31T20:54:18.577Z,10.4
2018-03-31T20:56:19.435Z,11.6
2018-03-31T20:58:19.332Z,10.6
2018-03-31T21:00:19.195Z,10.2
2018-03-31T21:02:19.045Z,10.2
2018-03-31T21:04:18.894Z,11
2018-03-31T21:06:19.193Z,10.1
2018-03-31T21:08:19.045Z,11.9
2018-03-31T21:10:19.430Z,9.7
2018-03-31T21:12:19.314Z,11.3
2018-03-31T21:14:19.186Z,8.9
2018-03-31T21:16:19.003Z,8.6
2018-03-31T21:18:18.932Z,10.2
2018-03-31T21:20:18.794Z,9.8
2018-03-31T21:22:18.658Z,9.2
2018-03-31T21:24:18.512Z,7.6
2018-03-31T21:26:19.419Z,8.4
2018-03-31T21:28:19.280Z,7.1
2018-03-31T21:30:19.142Z,8
2018-03-31T21:32:19.031Z,7.7
2018-03-31T21:34:18.882Z,8.9
2018-03-31T21:36:18.881Z,7.9
2018-03-31T21:38:18.772Z,9
2018-03-31T21:40:19.102Z,8.1
2018-03-31T21:42:18.989Z,8.3
2018-03-31T21:44:18.827Z,8.2
2018-03-31T21:46:18.753Z,8.3
2018-03-31T21:48:18.601Z,8.4
2018-03-31T21:50:19.431Z,7.8
2018-03-31T21:52:19.282Z,8.7
2018-03-31T21:54:19.194Z,7.6
2018-03-31T21:56:18.548Z,7.7
2018-03-31T21:58:19.415Z,7.2
2018-03-31T22:00:19.280Z,7.5
2018-03-31T22:02:19.148Z,6.1
2018-03-31T22:04:19.020Z,7.1
2018-03-31T22:06:19.279Z,7.1
2018-03-31T22:08:19.134Z,6.5
2018-03-31T22:10:19.484Z,6.5
2018-03-31T22:12:19.328Z,6.7
2018-03-31T22:14:19.169Z,5.2
2018-03-31T22:16:18.783Z,5.3
2018-03-31T22:18:18.718Z,5.2
2018-03-31T22:20:18.578Z,5.3
2018-03-31T22:22:19.433Z,5.9
2018-03-31T22:24:19.301Z,6.1
2018-03-31T22:26:19.029Z,5.7
2018-03-31T22:28:18.850Z,5
2018-03-31T22:30:18.700Z,3.8
2018-03-31T22:32:18.553Z,4.8
2018-03-31T22:34:19.388Z,4.7
2018-03-31T22:36:19.101Z,4.5
2018-03-31T22:38:18.946Z,4.5
2018-03-31T22:40:19.300Z,4.6
2018-03-31T22:42:19.175Z,4
2018-03-31T22:44:19.022Z,5
2018-03-31T22:46:18.895Z,5.4
2018-03-31T22:48:18.786Z,4.6
2018-03-31T22:50:18.668Z,5.3
2018-03-31T22:52:18.562Z,3.2
2018-03-31T22:54:19.422Z,3.7
2018-03-31T22:56:19.130Z,3.8
2018-03-31T22:58:18.978Z,4.1
2018-03-31T23:00:18.821Z,3.6
2018-03-31T23:02:18.680Z,3.9
2018-03-31T23:04:18.508Z,3.2
2018-03-31T23:06:19.056Z,4.8
2018-03-31T23:08:18.918Z,3.9
2018-03-31T23:10:19.251Z,3.2
2018-03-31T23:12:19.101Z,2.9
2018-03-31T23:14:18.982Z,3.2
2018-03-31T23:16:19.258Z,3.1
2018-03-31T23:18:19.189Z,3.2
2018-03-31T23:20:19.055Z,3.6
2018-03-31T23:22:18.936Z,3.2
2018-03-31T23:24:18.831Z,3.6
2018-03-31T23:26:18.690Z,3.4
2018-03-31T23:28:18.543Z,3.4
2018-03-31T23:30:19.404Z,3.3
2018-03-31T23:32:19.273Z,2.9
2018-03-31T23:34:19.118Z,3
2018-03-31T23:36:18.920Z,2.9
2018-03-31T23:38:18.759Z,3.6
2018-03-31T23:40:19.069Z,2.6
2018-03-31T23:42:18.928Z,2.4
2018-03-31T23:44:18.797Z,3.2
2018-03-31T23:46:19.146Z,2.4
2018-03-31T23:48:19.013Z,2.6
2018-03-31T23:50:18.856Z,2.4
2018-03-31T23:52:18.710Z,2.7
2018-03-31T23:54:18.573Z,3.2
2018-03-31T23:56:19.308Z,2.6
2018-03-31T23:58:19.189Z,2.7
